createdAt,value
2023-04-12T00:00:52.414Z,999
2023-04-12T00:02:33.175Z,999
2023-04-12T00:04:13.463Z,999
2023-04-12T00:05:53.715Z,999
2023-04-12T00:07:34.109Z,999
2023-04-12T00:09:14.426Z,999
2023-04-12T00:10:54.862Z,998
2023-04-12T00:12:35.298Z,998
2023-04-12T00:14:15.653Z,998
2023-04-12T00:15:56.127Z,998
2023-04-12T00:17:36.542Z,998
2023-04-12T00:19:16.842Z,998
2023-04-12T00:20:57.202Z,998
2023-04-12T00:22:37.683Z,998
2023-04-12T00:24:18.148Z,998
2023-04-12T00:25:58.572Z,998
2023-04-12T00:27:38.956Z,998
2023-04-12T00:29:19.297Z,998
2023-04-12T00:30:59.687Z,998
2023-04-12T00:32:40.024Z,998
2023-04-12T00:34:20.403Z,998
2023-04-12T00:36:00.820Z,998
2023-04-12T00:37:41.092Z,998
2023-04-12T00:39:21.504Z,998
2023-04-12T00:41:01.815Z,998
2023-04-12T00:42:42.119Z,998
2023-04-12T00:44:22.559Z,998
2023-04-12T00:46:03.014Z,998
2023-04-12T00:47:43.652Z,998
2023-04-12T00:49:23.912Z,998
2023-04-12T00:51:04.422Z,998
2023-04-12T00:52:44.900Z,998
2023-04-12T00:54:25.196Z,997
2023-04-12T00:56:05.531Z,997
2023-04-12T00:57:45.963Z,997
2023-04-12T00:59:26.368Z,997
2023-04-12T01:01:06.937Z,997
2023-04-12T01:02:47.952Z,997
2023-04-12T01:04:27.722Z,997
2023-04-12T01:06:08.166Z,997
2023-04-12T01:07:48.589Z,997
2023-04-12T01:09:28.873Z,997
2023-04-12T01:11:09.314Z,997
2023-04-12T01:12:49.608Z,997
2023-04-12T01:14:29.900Z,997
2023-04-12T01:16:10.261Z,997
2023-04-12T01:17:50.682Z,997
2023-04-12T01:19:31.009Z,997
2023-04-12T01:21:11.381Z,997
2023-04-12T01:22:51.777Z,997
2023-04-12T01:24:32.184Z,997
2023-04-12T01:26:12.598Z,997
2023-04-12T01:27:53.020Z,997
2023-04-12T01:29:33.446Z,997
2023-04-12T01:31:13.852Z,997
2023-04-12T01:32:54.218Z,997
2023-04-12T01:34:34.600Z,997
2023-04-12T01:36:14.978Z,997
2023-04-12T01:37:55.366Z,997
2023-04-12T01:39:35.879Z,997
2023-04-12T01:41:16.332Z,997
2023-04-12T01:42:56.674Z,997
2023-04-12T01:44:37.022Z,997
2023-04-12T01:46:17.668Z,997
2023-04-12T01:47:57.837Z,997
2023-04-12T01:49:38.266Z,997
2023-04-12T01:51:18.708Z,997
2023-04-12T01:52:59.080Z,996
2023-04-12T01:54:39.415Z,996
2023-04-12T01:56:19.797Z,996
2023-04-12T01:58:00.144Z,996
2023-04-12T01:59:40.422Z,996
2023-04-12T02:01:20.759Z,996
2023-04-12T02:03:01.249Z,996
2023-04-12T02:04:41.559Z,996
2023-04-12T02:06:21.925Z,996
2023-04-12T02:08:02.395Z,996
2023-04-12T02:09:42.828Z,996
2023-04-12T02:11:23.177Z,996
2023-04-12T02:13:03.542Z,996
2023-04-12T02:14:44.090Z,996
2023-04-12T02:16:24.453Z,996
2023-04-12T02:18:04.934Z,996
2023-04-12T02:19:45.287Z,996
2023-04-12T02:21:25.654Z,996
2023-04-12T02:23:06.065Z,996
2023-04-12T02:24:46.418Z,996
2023-04-12T02:26:26.809Z,996
2023-04-12T02:28:07.329Z,996
2023-04-12T02:29:47.622Z,996
2023-04-12T02:31:28.051Z,996
2023-04-12T02:33:08.418Z,996
2023-04-12T02:34:48.759Z,996
2023-04-12T02:36:29.135Z,996
2023-04-12T02:38:09.624Z,996
2023-04-12T02:39:49.905Z,996
2023-04-12T02:41:30.230Z,996
2023-04-12T02:43:10.577Z,996
2023-04-12T02:44:50.818Z,996
2023-04-12T02:46:31.206Z,996
2023-04-12T02:48:11.545Z,996
2023-04-12T02:49:51.790Z,995
2023-04-12T02:51:32.109Z,995
2023-04-12T02:53:12.413Z,996
2023-04-12T02:54:52.758Z,995
2023-04-12T02:56:33.114Z,995
2023-04-12T02:58:13.636Z,995
2023-04-12T02:59:54.113Z,995
2023-04-12T03:01:34.461Z,995
2023-04-12T03:03:15.018Z,995
2023-04-12T03:04:55.228Z,995
2023-04-12T03:06:35.661Z,995
2023-04-12T03:08:17.125Z,995
2023-04-12T03:09:56.417Z,995
2023-04-12T03:11:36.921Z,995
2023-04-12T03:13:17.324Z,995
2023-04-12T03:14:57.740Z,995
2023-04-12T03:16:38.142Z,995
2023-04-12T03:18:18.639Z,995
2023-04-12T03:19:58.984Z,995
2023-04-12T03:21:39.324Z,995
2023-04-12T03:23:19.819Z,995
2023-04-12T03:25:00.219Z,995
2023-04-12T03:26:40.633Z,995
2023-04-12T03:28:20.936Z,995
2023-04-12T03:30:01.300Z,995
2023-04-12T03:31:41.654Z,995
2023-04-12T03:33:21.988Z,995
2023-04-12T03:35:02.433Z,995
2023-04-12T03:36:42.779Z,995
2023-04-12T03:38:23.131Z,995
2023-04-12T03:40:03.543Z,995
2023-04-12T03:41:43.924Z,995
2023-04-12T03:43:24.323Z,995
2023-04-12T03:45:04.756Z,995
2023-04-12T03:46:45.242Z,995
2023-04-12T03:48:25.551Z,995
2023-04-12T03:50:11.600Z,995
2023-04-12T03:51:46.312Z,995
2023-04-12T03:53:26.702Z,995
2023-04-12T03:55:07.392Z,995
2023-04-12T03:56:47.540Z,995
2023-04-12T03:58:27.905Z,995
2023-04-12T04:00:08.338Z,995
2023-04-12T04:01:48.783Z,995
2023-04-12T04:03:29.233Z,995
2023-04-12T04:05:09.557Z,995
2023-04-12T04:06:49.965Z,995
2023-04-12T04:08:30.341Z,995
2023-04-12T04:10:10.710Z,995
2023-04-12T04:11:51.049Z,994
2023-04-12T04:13:31.329Z,994
2023-04-12T04:15:11.721Z,994
2023-04-12T04:16:51.969Z,994
2023-04-12T04:18:32.274Z,994
2023-04-12T04:20:12.620Z,994
2023-04-12T04:21:53.019Z,994
2023-04-12T04:23:33.457Z,994
2023-04-12T04:25:13.960Z,994
2023-04-12T04:26:54.477Z,994
2023-04-12T04:28:35.226Z,994
2023-04-12T04:30:15.207Z,994
2023-04-12T04:31:55.517Z,994
2023-04-12T04:33:35.833Z,994
2023-04-12T04:35:16.251Z,994
2023-04-12T04:36:56.615Z,994
2023-04-12T04:38:37.003Z,994
2023-04-12T04:40:17.364Z,994
2023-04-12T04:41:57.790Z,994
2023-04-12T04:43:38.216Z,994
2023-04-12T04:45:18.556Z,994
2023-04-12T04:46:58.986Z,994
2023-04-12T04:48:39.416Z,994
2023-04-12T04:50:19.859Z,994
2023-04-12T04:52:00.181Z,994
2023-04-12T04:53:40.548Z,994
2023-04-12T04:55:20.948Z,994
2023-04-12T04:57:01.535Z,994
2023-04-12T04:58:41.892Z,994
2023-04-12T05:00:22.225Z,994
2023-04-12T05:02:02.680Z,994
2023-04-12T05:03:43.121Z,994
2023-04-12T05:05:23.589Z,994
2023-04-12T05:07:03.743Z,993
2023-04-12T05:08:44.083Z,994
2023-04-12T05:10:24.506Z,993
2023-04-12T05:12:04.925Z,993
2023-04-12T05:13:45.346Z,993
2023-04-12T05:15:25.753Z,993
2023-04-12T05:17:06.266Z,993
2023-04-12T05:18:46.560Z,993
2023-04-12T05:20:26.977Z,993
2023-04-12T05:22:07.459Z,993
2023-04-12T05:23:47.831Z,993
2023-04-12T05:25:28.267Z,993
2023-04-12T05:27:08.702Z,993
2023-04-12T05:28:49.108Z,993
2023-04-12T05:30:29.547Z,993
2023-04-12T05:32:09.817Z,993
2023-04-12T05:33:50.159Z,993
2023-04-12T05:35:30.697Z,993
2023-04-12T05:37:11.028Z,993
2023-04-12T05:38:51.361Z,993
2023-04-12T05:40:31.702Z,993
2023-04-12T05:42:11.965Z,993
2023-04-12T05:43:52.304Z,993
2023-04-12T05:45:32.660Z,993
2023-04-12T05:47:12.942Z,993
2023-04-12T05:48:53.243Z,993
2023-04-12T05:50:33.597Z,993
2023-04-12T05:52:14.041Z,993
2023-04-12T05:53:54.426Z,993
2023-04-12T05:55:37.318Z,993
2023-04-12T05:57:15.313Z,993
2023-04-12T05:58:56.012Z,993
2023-04-12T06:00:36.119Z,993
2023-04-12T06:02:16.495Z,992
2023-04-12T06:03:56.987Z,992
2023-04-12T06:05:37.391Z,992
2023-04-12T06:07:17.701Z,992
2023-04-12T06:08:58.333Z,992
2023-04-12T06:10:38.594Z,992
2023-04-12T06:12:19.036Z,992
2023-04-12T06:13:59.398Z,992
2023-04-12T06:15:39.833Z,992
2023-04-12T06:17:20.199Z,992
2023-04-12T06:19:00.809Z,992
2023-04-12T06:20:41.021Z,992
2023-04-12T06:22:21.357Z,992
2023-04-12T06:24:01.840Z,992
2023-04-12T06:25:42.154Z,992
2023-04-12T06:27:22.485Z,992
2023-04-12T06:29:02.865Z,992
2023-04-12T06:30:43.245Z,992
2023-04-12T06:32:23.588Z,992
2023-04-12T06:34:04.070Z,992
2023-04-12T06:35:44.556Z,992
2023-04-12T06:37:24.907Z,992
2023-04-12T06:39:05.339Z,992
2023-04-12T06:40:45.742Z,992
2023-04-12T06:42:26.252Z,992
2023-04-12T06:44:06.644Z,992
2023-04-12T06:45:47.110Z,992
2023-04-12T06:47:27.527Z,992
2023-04-12T06:49:07.940Z,992
2023-04-12T06:50:48.325Z,991
2023-04-12T06:52:28.722Z,991
2023-04-12T06:54:09.029Z,991
2023-04-12T06:55:49.359Z,991
2023-04-12T06:57:29.775Z,991
2023-04-12T06:59:10.081Z,991
2023-04-12T07:00:50.511Z,991
2023-04-12T07:02:30.868Z,991
2023-04-12T07:04:11.209Z,991
2023-04-12T07:05:51.591Z,991
2023-04-12T07:07:31.956Z,991
2023-04-12T07:09:12.287Z,991
2023-04-12T07:10:52.590Z,991
2023-04-12T07:12:32.947Z,991
2023-04-12T07:14:13.343Z,991
2023-04-12T07:15:53.759Z,991
2023-04-12T07:17:34.239Z,991
2023-04-12T07:19:14.572Z,991
2023-04-12T07:20:54.977Z,991
2023-04-12T07:22:35.366Z,991
2023-04-12T07:24:15.847Z,991
2023-04-12T07:25:56.266Z,991
2023-04-12T07:27:36.689Z,991
2023-04-12T07:29:17.155Z,991
2023-04-12T07:30:57.540Z,991
2023-04-12T07:32:38.124Z,991
2023-04-12T07:34:18.541Z,991
2023-04-12T07:35:58.899Z,991
2023-04-12T07:37:39.255Z,991
2023-04-12T07:39:19.739Z,991
2023-04-12T07:41:00.108Z,991
2023-04-12T07:42:40.511Z,991
2023-04-12T07:44:20.973Z,991
2023-04-12T07:46:01.365Z,991
2023-04-12T07:47:41.782Z,991
2023-04-12T07:49:22.108Z,991
2023-04-12T07:51:02.492Z,991
2023-04-12T07:52:42.924Z,991
2023-04-12T07:54:23.728Z,991
2023-04-12T07:56:03.693Z,991
2023-04-12T07:57:44.081Z,991
2023-04-12T07:59:24.481Z,991
2023-04-12T08:01:04.964Z,991
2023-04-12T08:02:45.502Z,991
2023-04-12T08:04:25.939Z,991
2023-04-12T08:06:06.254Z,990
2023-04-12T08:07:46.686Z,990
2023-04-12T08:09:27.117Z,990
2023-04-12T08:11:07.540Z,990
2023-04-12T08:12:47.978Z,990
2023-04-12T08:14:28.473Z,990
2023-04-12T08:16:08.808Z,990
2023-04-12T08:17:49.298Z,990
2023-04-12T08:19:29.623Z,990
2023-04-12T08:21:09.971Z,990
2023-04-12T08:22:50.314Z,990
2023-04-12T08:24:30.623Z,990
2023-04-12T08:26:10.905Z,990
2023-04-12T08:27:51.282Z,990
2023-04-12T08:29:31.593Z,990
2023-04-12T08:31:11.930Z,990
2023-04-12T08:32:52.258Z,990
2023-04-12T08:34:32.589Z,990
2023-04-12T08:36:13.122Z,990
2023-04-12T08:37:53.509Z,990
2023-04-12T08:39:34.035Z,990
2023-04-12T08:41:15.216Z,990
2023-04-12T08:42:54.825Z,990
2023-04-12T08:44:35.239Z,990
2023-04-12T08:46:16.050Z,990
2023-04-12T08:47:56.014Z,990
2023-04-12T08:49:36.355Z,990
2023-04-12T08:51:16.691Z,990
2023-04-12T08:52:57.136Z,990
2023-04-12T08:54:37.522Z,990
2023-04-12T08:56:17.855Z,990
2023-04-12T08:57:58.227Z,990
2023-04-12T08:59:38.577Z,990
2023-04-12T09:01:19.103Z,990
2023-04-12T09:02:59.582Z,990
2023-04-12T09:04:39.966Z,990
2023-04-12T09:06:20.304Z,990
2023-04-12T09:08:00.648Z,990
2023-04-12T09:09:41.000Z,989
2023-04-12T09:11:21.353Z,989
2023-04-12T09:13:01.807Z,989
2023-04-12T09:14:42.226Z,989
2023-04-12T09:16:22.769Z,989
2023-04-12T09:18:03.091Z,989
2023-04-12T09:19:43.512Z,989
2023-04-12T09:21:23.922Z,989
2023-04-12T09:23:04.242Z,989
2023-04-12T09:24:44.751Z,989
2023-04-12T09:26:25.208Z,989
2023-04-12T09:28:05.597Z,989
2023-04-12T09:29:46.055Z,989
2023-04-12T09:31:26.642Z,989
2023-04-12T09:33:07.032Z,989
2023-04-12T09:34:47.299Z,989
2023-04-12T09:36:27.661Z,989
2023-04-12T09:38:08.092Z,989
2023-04-12T09:39:48.474Z,989
2023-04-12T09:41:28.736Z,989
2023-04-12T09:43:09.053Z,989
2023-04-12T09:44:49.594Z,989
2023-04-12T09:46:30.114Z,989
2023-04-12T09:48:10.337Z,989
2023-04-12T09:49:50.801Z,989
2023-04-12T09:51:31.218Z,989
2023-04-12T09:53:11.527Z,989
2023-04-12T09:54:51.967Z,989
2023-04-12T09:56:32.548Z,989
2023-04-12T09:58:12.717Z,989
2023-04-12T09:59:52.998Z,989
2023-04-12T10:01:33.474Z,989
2023-04-12T10:03:13.950Z,989
2023-04-12T10:04:54.366Z,989
2023-04-12T10:06:34.700Z,989
2023-04-12T10:08:15.173Z,988
2023-04-12T10:09:55.543Z,988
2023-04-12T10:11:35.903Z,988
2023-04-12T10:13:16.255Z,988
2023-04-12T10:14:56.564Z,989
2023-04-12T10:16:37.050Z,988
2023-04-12T10:18:17.434Z,988
2023-04-12T10:19:57.806Z,988
2023-04-12T10:21:38.171Z,988
2023-04-12T10:23:18.545Z,988
2023-04-12T10:24:58.917Z,988
2023-04-12T10:26:39.350Z,988
2023-04-12T10:28:19.842Z,988
2023-04-12T10:30:00.278Z,988
2023-04-12T10:31:40.713Z,988
2023-04-12T10:33:21.262Z,988
2023-04-12T10:35:01.567Z,988
2023-04-12T10:36:41.924Z,988
2023-04-12T10:38:22.314Z,988
2023-04-12T10:40:02.698Z,988
2023-04-12T10:41:43.106Z,988
2023-04-12T10:43:23.549Z,988
2023-04-12T10:45:03.849Z,988
2023-04-12T10:46:44.274Z,988
2023-04-12T10:48:24.733Z,988
2023-04-12T10:50:05.063Z,988
2023-04-12T10:51:45.471Z,988
2023-04-12T10:53:25.827Z,988
2023-04-12T10:55:06.265Z,988
2023-04-12T10:56:46.696Z,988
2023-04-12T10:58:27.102Z,988
2023-04-12T11:00:07.413Z,988
2023-04-12T11:01:47.789Z,988
2023-04-12T11:03:28.189Z,988
2023-04-12T11:05:08.598Z,988
2023-04-12T11:06:48.875Z,988
2023-04-12T11:08:29.382Z,988
2023-04-12T11:10:09.796Z,988
2023-04-12T11:11:50.257Z,988
2023-04-12T11:13:30.703Z,988
2023-04-12T11:15:11.043Z,988
2023-04-12T11:16:51.512Z,988
2023-04-12T11:18:32.001Z,988
2023-04-12T11:20:12.417Z,988
2023-04-12T11:21:52.713Z,988
2023-04-12T11:23:33.150Z,988
2023-04-12T11:25:13.542Z,988
2023-04-12T11:26:54.010Z,988
2023-04-12T11:28:35.519Z,988
2023-04-12T11:30:14.858Z,988
2023-04-12T11:31:55.313Z,988
2023-04-12T11:33:35.659Z,988
2023-04-12T11:35:16.057Z,988
2023-04-12T11:36:56.472Z,988
2023-04-12T11:38:36.992Z,988
2023-04-12T11:40:17.404Z,988
2023-04-12T11:41:57.833Z,988
2023-04-12T11:43:38.360Z,988
2023-04-12T11:45:18.797Z,987
2023-04-12T11:46:59.092Z,987
2023-04-12T11:48:39.679Z,987
2023-04-12T11:50:19.916Z,988
2023-04-12T11:52:00.329Z,987
2023-04-12T11:53:40.721Z,987
2023-04-12T11:55:21.082Z,987
2023-04-12T11:57:02.884Z,987
2023-04-12T11:58:41.924Z,987
2023-04-12T12:00:22.312Z,987
2023-04-12T12:02:10.871Z,987
2023-04-12T12:03:43.515Z,987
2023-04-12T12:05:23.798Z,987
2023-04-12T12:07:04.236Z,987
2023-04-12T12:08:44.489Z,987
2023-04-12T12:10:40.080Z,987
2023-04-12T12:12:05.368Z,987
2023-04-12T12:13:45.736Z,987
2023-04-12T12:15:26.052Z,987
2023-04-12T12:17:06.448Z,987
2023-04-12T12:18:46.872Z,987
2023-04-12T12:20:27.292Z,987
2023-04-12T12:22:07.711Z,987
2023-04-12T12:23:48.048Z,987
2023-04-12T12:25:28.414Z,987
2023-04-12T12:27:08.889Z,987
2023-04-12T12:28:49.232Z,987
2023-04-12T12:30:29.623Z,987
2023-04-12T12:32:09.979Z,987
2023-04-12T12:33:50.302Z,987
2023-04-12T12:35:30.632Z,987
2023-04-12T12:37:11.036Z,987
2023-04-12T12:38:51.552Z,987
2023-04-12T12:40:31.788Z,987
2023-04-12T12:42:12.220Z,987
2023-04-12T12:43:52.802Z,987
2023-04-12T12:45:33.172Z,987
2023-04-12T12:47:14.783Z,987
2023-04-12T12:48:53.910Z,987
2023-04-12T12:50:34.330Z,987
2023-04-12T12:52:16.549Z,987
2023-04-12T12:53:55.059Z,987
2023-04-12T12:55:35.493Z,987
2023-04-12T12:57:15.959Z,987
2023-04-12T12:58:56.696Z,987
2023-04-12T13:00:36.802Z,987
2023-04-12T13:02:17.255Z,987
2023-04-12T13:03:57.762Z,987
2023-04-12T13:05:38.170Z,987
2023-04-12T13:07:18.620Z,987
2023-04-12T13:08:59.229Z,987
2023-04-12T13:10:39.444Z,987
2023-04-12T13:12:19.811Z,987
2023-04-12T13:14:00.212Z,987
2023-04-12T13:15:40.616Z,987
2023-04-12T13:17:21.111Z,987
2023-04-12T13:19:01.455Z,987
2023-04-12T13:20:41.868Z,987
2023-04-12T13:22:22.308Z,987
2023-04-12T13:24:02.743Z,987
2023-04-12T13:25:43.217Z,987
2023-04-12T13:27:23.639Z,987
2023-04-12T13:29:04.153Z,987
2023-04-12T13:30:44.511Z,987
2023-04-12T13:32:24.830Z,987
2023-04-12T13:34:05.092Z,987
2023-04-12T13:35:45.527Z,986
2023-04-12T13:37:25.874Z,986
2023-04-12T13:39:06.272Z,986
2023-04-12T13:40:46.669Z,986
2023-04-12T13:42:26.977Z,986
2023-04-12T13:44:07.484Z,986
2023-04-12T13:45:47.865Z,986
2023-04-12T13:47:28.311Z,986
2023-04-12T13:49:08.576Z,986
2023-04-12T13:50:50.605Z,986
2023-04-12T13:52:29.445Z,986
2023-04-12T13:54:09.807Z,986
2023-04-12T13:55:50.435Z,986
2023-04-12T13:57:30.713Z,986
2023-04-12T13:59:11.106Z,986
2023-04-12T14:00:51.500Z,986
2023-04-12T14:02:32.054Z,986
2023-04-12T14:04:12.432Z,986
2023-04-12T14:05:52.777Z,986
2023-04-12T14:07:33.156Z,986
2023-04-12T14:09:13.556Z,986
2023-04-12T14:10:53.919Z,986
2023-04-12T14:12:34.290Z,986
2023-04-12T14:14:16.665Z,986
2023-04-12T14:15:55.162Z,986
2023-04-12T14:17:35.676Z,986
2023-04-12T14:19:15.960Z,986
2023-04-12T14:20:56.378Z,986
2023-04-12T14:22:36.791Z,986
2023-04-12T14:24:17.205Z,986
2023-04-12T14:25:57.637Z,986
2023-04-12T14:27:38.052Z,986
2023-04-12T14:29:18.465Z,986
2023-04-12T14:30:58.865Z,986
2023-04-12T14:32:39.318Z,986
2023-04-12T14:34:19.681Z,986
2023-04-12T14:36:00.162Z,986
2023-04-12T14:37:40.596Z,986
2023-04-12T14:39:20.970Z,986
2023-04-12T14:41:01.480Z,986
2023-04-12T14:42:41.800Z,986
2023-04-12T14:44:24.708Z,986
2023-04-12T14:46:02.640Z,986
2023-04-12T14:47:43.077Z,986
2023-04-12T14:49:23.445Z,986
2023-04-12T14:51:03.834Z,986
2023-04-12T14:52:44.221Z,986
2023-04-12T14:54:24.724Z,986
2023-04-12T14:56:05.168Z,986
2023-04-12T14:57:45.576Z,986
2023-04-12T14:59:26.071Z,986
2023-04-12T15:01:06.324Z,986
2023-04-12T15:02:46.820Z,986
2023-04-12T15:04:27.136Z,986
2023-04-12T15:06:07.447Z,986
2023-04-12T15:07:49.116Z,986
2023-04-12T15:09:28.245Z,986
2023-04-12T15:11:08.698Z,986
2023-04-12T15:12:49.100Z,985
2023-04-12T15:14:29.582Z,985
2023-04-12T15:16:09.979Z,985
2023-04-12T15:17:50.348Z,985
2023-04-12T15:19:30.727Z,986
2023-04-12T15:21:11.120Z,986
2023-04-12T15:22:51.450Z,986
2023-04-12T15:24:31.895Z,986
2023-04-12T15:26:12.350Z,986
2023-04-12T15:27:52.733Z,986
2023-04-12T15:29:33.122Z,986
2023-04-12T15:31:13.534Z,986
2023-04-12T15:32:54.058Z,986
2023-04-12T15:34:34.429Z,986
2023-04-12T15:36:14.803Z,986
2023-04-12T15:37:55.590Z,986
2023-04-12T15:39:35.718Z,986
2023-04-12T15:41:16.051Z,986
2023-04-12T15:42:56.449Z,986
2023-04-12T15:44:36.911Z,986
2023-04-12T15:46:17.348Z,986
2023-04-12T15:47:57.663Z,986
2023-04-12T15:49:38.000Z,986
2023-04-12T15:51:18.399Z,986
2023-04-12T15:52:58.699Z,986
2023-04-12T15:54:40.606Z,986
2023-04-12T15:56:19.543Z,986
2023-04-12T15:57:59.924Z,986
2023-04-12T15:59:40.283Z,986
2023-04-12T16:01:20.826Z,986
2023-04-12T16:03:01.247Z,986
2023-04-12T16:04:41.681Z,986
2023-04-12T16:06:21.902Z,986
2023-04-12T16:08:02.346Z,986
2023-04-12T16:09:42.807Z,986
2023-04-12T16:11:23.217Z,986
2023-04-12T16:13:03.626Z,986
2023-04-12T16:14:44.051Z,986
2023-04-12T16:16:24.452Z,986
2023-04-12T16:18:07.873Z,986
2023-04-12T16:19:45.142Z,986
2023-04-12T16:21:25.432Z,986
2023-04-12T16:23:05.838Z,986
2023-04-12T16:24:46.190Z,986
2023-04-12T16:26:26.656Z,986
2023-04-12T16:28:07.030Z,986
2023-04-12T16:29:47.441Z,986
2023-04-12T16:31:27.932Z,986
2023-04-12T16:33:08.332Z,986
2023-04-12T16:34:48.751Z,986
2023-04-12T16:36:32.200Z,986
2023-04-12T16:38:09.598Z,986
2023-04-12T16:39:50.059Z,986
2023-04-12T16:41:30.457Z,986
2023-04-12T16:43:10.865Z,986
2023-04-12T16:44:51.212Z,986
2023-04-12T16:46:31.668Z,986
2023-04-12T16:48:12.010Z,986
2023-04-12T16:49:52.374Z,986
2023-04-12T16:51:37.365Z,986
2023-04-12T16:53:13.080Z,986
2023-04-12T16:54:53.378Z,986
2023-04-12T16:56:33.696Z,986
2023-04-12T16:58:14.021Z,986
2023-04-12T16:59:54.476Z,986
2023-04-12T17:01:34.879Z,986
2023-04-12T17:03:16.592Z,986
2023-04-12T17:04:55.694Z,986
2023-04-12T17:06:36.067Z,986
2023-04-12T17:08:16.466Z,986
2023-04-12T17:09:56.889Z,986
2023-04-12T17:11:37.269Z,986
2023-04-12T17:13:20.068Z,986
2023-04-12T17:14:58.106Z,986
2023-04-12T17:16:38.532Z,986
2023-04-12T17:18:18.826Z,986
2023-04-12T17:19:59.213Z,986
2023-04-12T17:21:39.676Z,986
2023-04-12T17:23:20.049Z,986
2023-04-12T17:25:00.556Z,986
2023-04-12T17:26:41.056Z,986
2023-04-12T17:28:21.504Z,986
2023-04-12T17:30:01.990Z,986
2023-04-12T17:31:42.368Z,986
2023-04-12T17:33:22.849Z,987
2023-04-12T17:35:03.245Z,987
2023-04-12T17:36:43.648Z,987
2023-04-12T17:38:23.992Z,987
2023-04-12T17:40:04.552Z,987
2023-04-12T17:41:44.988Z,987
2023-04-12T17:43:25.404Z,987
2023-04-12T17:45:05.716Z,987
2023-04-12T17:46:46.146Z,987
2023-04-12T17:48:26.440Z,987
2023-04-12T17:50:06.863Z,987
2023-04-12T17:51:47.256Z,987
2023-04-12T17:53:27.687Z,987
2023-04-12T17:55:08.075Z,988
2023-04-12T17:56:48.488Z,988
2023-04-12T17:58:28.938Z,988
2023-04-12T18:00:09.361Z,988
2023-04-12T18:01:49.748Z,988
2023-04-12T18:03:30.327Z,988
2023-04-12T18:05:10.451Z,988
2023-04-12T18:06:50.789Z,988
2023-04-12T18:08:31.322Z,988
2023-04-12T18:10:11.669Z,988
2023-04-12T18:11:52.046Z,988
2023-04-12T18:13:32.426Z,988
2023-04-12T18:15:12.814Z,988
2023-04-12T18:16:53.194Z,988
2023-04-12T18:18:33.579Z,988
2023-04-12T18:20:14.016Z,988
2023-04-12T18:21:54.400Z,988
2023-04-12T18:23:34.900Z,988
2023-04-12T18:25:15.286Z,988
2023-04-12T18:26:55.634Z,988
2023-04-12T18:28:36.023Z,988
2023-04-12T18:30:16.425Z,988
2023-04-12T18:31:56.912Z,988
2023-04-12T18:33:37.256Z,988
2023-04-12T18:35:17.597Z,988
2023-04-12T18:36:57.858Z,988
2023-04-12T18:38:38.264Z,988
2023-04-12T18:40:18.686Z,988
2023-04-12T18:41:59.103Z,988
2023-04-12T18:43:39.476Z,988
2023-04-12T18:45:19.924Z,988
2023-04-12T18:47:00.408Z,988
2023-04-12T18:48:40.682Z,988
2023-04-12T18:50:21.043Z,988
2023-04-12T18:52:01.477Z,988
2023-04-12T18:53:41.936Z,988
2023-04-12T18:55:22.279Z,988
2023-04-12T18:57:02.763Z,988
2023-04-12T18:58:54.570Z,988
2023-04-12T19:00:23.667Z,988
2023-04-12T19:02:04.081Z,988
2023-04-12T19:03:44.482Z,988
2023-04-12T19:05:24.723Z,989
2023-04-12T19:07:05.109Z,989
2023-04-12T19:08:45.520Z,989
2023-04-12T19:10:25.911Z,989
2023-04-12T19:12:06.350Z,989
2023-04-12T19:13:46.782Z,989
2023-04-12T19:15:27.222Z,989
2023-04-12T19:17:07.557Z,989
2023-04-12T19:18:47.958Z,989
2023-04-12T19:20:28.363Z,989
2023-04-12T19:22:11.876Z,989
2023-04-12T19:23:49.345Z,989
2023-04-12T19:25:29.672Z,989
2023-04-12T19:27:10.081Z,989
2023-04-12T19:28:50.410Z,989
2023-04-12T19:30:30.749Z,989
2023-04-12T19:32:11.185Z,989
2023-04-12T19:33:51.685Z,989
2023-04-12T19:35:32.057Z,989
2023-04-12T19:37:12.465Z,989
2023-04-12T19:38:52.903Z,989
2023-04-12T19:40:33.248Z,989
2023-04-12T19:42:13.692Z,989
2023-04-12T19:43:54.072Z,989
2023-04-12T19:45:34.565Z,989
2023-04-12T19:47:14.955Z,989
2023-04-12T19:48:55.283Z,989
2023-04-12T19:50:35.669Z,989
2023-04-12T19:52:16.021Z,989
2023-04-12T19:53:56.671Z,989
2023-04-12T19:55:36.891Z,989
2023-04-12T19:57:17.339Z,989
2023-04-12T19:58:57.970Z,989
2023-04-12T20:00:38.055Z,989
2023-04-12T20:02:18.469Z,989
2023-04-12T20:03:58.870Z,989
2023-04-12T20:05:39.196Z,989
2023-04-12T20:07:19.497Z,989
2023-04-12T20:09:00.253Z,989
2023-04-12T20:10:40.365Z,989
2023-04-12T20:12:20.810Z,989
2023-04-12T20:14:01.242Z,989
2023-04-12T20:15:41.682Z,989
2023-04-12T20:17:22.087Z,989
2023-04-12T20:19:02.511Z,989
2023-04-12T20:20:42.950Z,989
2023-04-12T20:22:23.387Z,989
2023-04-12T20:24:03.796Z,989
2023-04-12T20:25:44.225Z,989
2023-04-12T20:27:24.594Z,989
2023-04-12T20:29:04.976Z,989
2023-04-12T20:30:45.381Z,989
2023-04-12T20:32:25.729Z,989
2023-04-12T20:34:06.087Z,989
2023-04-12T20:35:46.550Z,989
2023-04-12T20:37:26.921Z,989
2023-04-12T20:39:07.375Z,989
2023-04-12T20:40:47.845Z,989
2023-04-12T20:42:28.234Z,989
2023-04-12T20:44:08.670Z,989
2023-04-12T20:45:49.104Z,989
2023-04-12T20:47:29.393Z,989
2023-04-12T20:49:09.728Z,989
2023-04-12T20:50:50.090Z,989
2023-04-12T20:52:30.412Z,989
2023-04-12T20:54:10.847Z,989
2023-04-12T20:55:51.239Z,989
2023-04-12T20:57:31.658Z,989
2023-04-12T20:59:12.051Z,989
2023-04-12T21:00:52.412Z,989
2023-04-12T21:02:32.971Z,989
2023-04-12T21:04:13.235Z,989
2023-04-12T21:05:53.570Z,989
2023-04-12T21:07:34.009Z,989
2023-04-12T21:09:14.352Z,989
2023-04-12T21:10:54.705Z,989
2023-04-12T21:12:35.103Z,989
2023-04-12T21:14:15.501Z,989
2023-04-12T21:15:55.967Z,989
2023-04-12T21:17:36.470Z,989
2023-04-12T21:19:16.837Z,989
2023-04-12T21:20:57.294Z,989
2023-04-12T21:22:37.761Z,989
2023-04-12T21:24:18.132Z,989
2023-04-12T21:25:58.600Z,989
2023-04-12T21:27:38.961Z,989
2023-04-12T21:29:19.403Z,989
2023-04-12T21:30:59.771Z,989
2023-04-12T21:32:40.244Z,989
2023-04-12T21:34:20.486Z,989
2023-04-12T21:36:00.885Z,989
2023-04-12T21:37:41.301Z,989
2023-04-12T21:39:21.675Z,989
2023-04-12T21:41:01.944Z,989
2023-04-12T21:42:42.233Z,989
2023-04-12T21:44:22.572Z,989
2023-04-12T21:46:03.006Z,989
2023-04-12T21:47:43.337Z,989
2023-04-12T21:49:23.630Z,989
2023-04-12T21:51:04.037Z,989
2023-04-12T21:52:44.455Z,989
2023-04-12T21:54:24.928Z,989
2023-04-12T21:56:05.345Z,989
2023-04-12T21:57:45.776Z,989
2023-04-12T21:59:26.126Z,989
2023-04-12T22:01:06.613Z,989
2023-04-12T22:02:47.180Z,989
2023-04-12T22:04:27.485Z,989
2023-04-12T22:06:08.017Z,989
2023-04-12T22:07:48.425Z,989
2023-04-12T22:09:28.843Z,989
2023-04-12T22:11:09.317Z,989
2023-04-12T22:12:49.748Z,989
2023-04-12T22:14:30.176Z,989
2023-04-12T22:16:10.529Z,989
2023-04-12T22:17:50.980Z,989
2023-04-12T22:19:31.370Z,989
2023-04-12T22:21:11.756Z,989
2023-04-12T22:22:52.192Z,989
2023-04-12T22:24:32.569Z,989
2023-04-12T22:26:12.951Z,989
2023-04-12T22:27:53.377Z,989
2023-04-12T22:29:33.757Z,989
2023-04-12T22:31:14.421Z,989
2023-04-12T22:32:54.582Z,989
2023-04-12T22:34:34.905Z,989
2023-04-12T22:36:15.280Z,989
2023-04-12T22:37:55.705Z,989
2023-04-12T22:39:36.073Z,989
2023-04-12T22:41:16.499Z,989
2023-04-12T22:42:56.841Z,989
2023-04-12T22:44:37.225Z,989
2023-04-12T22:46:17.707Z,989
2023-04-12T22:47:58.050Z,989
2023-04-12T22:49:38.431Z,989
2023-04-12T22:51:18.803Z,989
2023-04-12T22:52:59.189Z,989
2023-04-12T22:54:39.651Z,989
2023-04-12T22:56:19.946Z,989
2023-04-12T22:58:00.379Z,989
2023-04-12T22:59:40.754Z,989
2023-04-12T23:01:21.128Z,989
2023-04-12T23:03:01.603Z,989